createdAt,value
2023-02-05T00:01:58.479Z,101610.16
2023-02-05T00:06:01.485Z,101600.78
2023-02-05T00:10:04.888Z,101600.03
2023-02-05T00:14:07.907Z,101589.66
2023-02-05T00:18:12.365Z,101596.63
2023-02-05T00:22:15.265Z,101609.34
2023-02-05T00:26:18.352Z,101606.56
2023-02-05T00:30:22.155Z,101609.13
2023-02-05T00:34:26.538Z,101612.28
2023-02-05T00:38:29.458Z,101609.44
2023-02-05T00:42:32.632Z,101619.47
2023-02-05T00:46:35.506Z,101630.50
2023-02-05T00:50:40.718Z,101646.59
2023-02-05T00:54:43.584Z,101645.34
2023-02-05T00:58:48.970Z,101662.44
2023-02-05T01:02:51.880Z,101665.56
2023-02-05T01:06:56.393Z,101660.38
2023-02-05T01:10:59.367Z,101671.78
2023-02-05T01:15:03.014Z,101666.25
2023-02-05T01:19:05.884Z,101673.13
2023-02-05T01:23:10.587Z,101672.88
2023-02-05T01:27:13.601Z,101678.63
2023-02-05T01:31:16.703Z,101680.28
2023-02-05T01:35:19.824Z,101666.22
2023-02-05T01:39:24.593Z,101679.94
2023-02-05T01:43:27.550Z,101691.84
2023-02-05T01:47:30.545Z,101679.56
2023-02-05T01:51:36.836Z,101677.00
2023-02-05T01:55:46.012Z,101675.84
2023-02-05T01:59:51.102Z,101684.13
2023-02-05T02:03:56.332Z,101682.91
2023-02-05T02:07:59.354Z,101689.50
2023-02-05T02:12:04.173Z,101684.25
2023-02-05T02:16:09.077Z,101696.00
2023-02-05T02:20:16.692Z,101688.91
2023-02-05T02:25:09.954Z,101696.09
2023-02-05T02:29:19.311Z,101699.44
2023-02-05T02:33:28.509Z,101700.09
2023-02-05T02:37:38.325Z,101702.44
2023-02-05T02:41:48.160Z,101709.19
2023-02-05T02:46:03.139Z,101704.41
2023-02-05T02:50:13.072Z,101695.00
2023-02-05T02:54:19.514Z,101708.69
2023-02-05T02:58:26.477Z,101715.44
2023-02-05T03:02:34.566Z,101712.72
2023-02-05T03:06:39.275Z,101704.84
2023-02-05T03:10:50.111Z,101711.56
2023-02-05T03:14:54.697Z,101700.97
2023-02-05T03:18:59.927Z,101702.53
2023-02-05T03:23:02.839Z,101701.41
2023-02-05T03:27:05.909Z,101700.88
2023-02-05T03:31:17.690Z,101708.50
2023-02-05T03:35:32.843Z,101716.41
2023-02-05T03:39:51.293Z,101720.69
2023-02-05T03:44:08.430Z,101725.59
2023-02-05T03:48:29.450Z,101727.41
2023-02-05T03:52:37.571Z,101735.16
2023-02-05T03:56:53.114Z,101731.78
2023-02-05T04:00:57.062Z,101744.31
2023-02-05T04:05:00.271Z,101739.16
2023-02-05T04:09:06.153Z,101733.72
2023-02-05T04:13:10.530Z,101741.34
2023-02-05T04:17:15.693Z,101736.19
2023-02-05T04:21:19.405Z,101725.84
2023-02-05T04:25:23.789Z,101725.72
2023-02-05T04:29:29.263Z,101726.13
2023-02-05T04:33:34.360Z,101722.41
2023-02-05T04:37:37.887Z,101716.56
2023-02-05T04:41:43.286Z,101723.69
2023-02-05T04:45:46.186Z,101732.22
2023-02-05T04:49:49.132Z,101741.00
2023-02-05T04:53:52.168Z,101739.22
2023-02-05T04:57:56.519Z,101728.75
2023-02-05T05:01:59.503Z,101727.72
2023-02-05T05:06:06.124Z,101725.63
2023-02-05T05:10:09.897Z,101729.03
2023-02-05T05:14:14.430Z,101726.94
2023-02-05T05:18:17.285Z,101722.56
2023-02-05T05:22:20.671Z,101723.47
2023-02-05T05:26:23.573Z,101729.53
2023-02-05T05:30:27.917Z,101745.56
2023-02-05T05:34:30.821Z,101740.81
2023-02-05T05:38:33.729Z,101723.47
2023-02-05T05:42:54.049Z,101716.41
2023-02-05T05:46:58.343Z,101734.34
2023-02-05T05:51:01.252Z,101741.31
2023-02-05T05:55:04.346Z,101747.13
2023-02-05T05:59:07.226Z,101743.78
2023-02-05T06:03:13.136Z,101741.84
2023-02-05T06:07:16.022Z,101743.53
2023-02-05T06:11:19.023Z,101751.28
2023-02-05T06:21:17.100Z,101761.59
2023-02-05T06:25:20.467Z,101759.78
2023-02-05T06:29:23.399Z,101762.38
2023-02-05T06:33:26.328Z,101768.56
2023-02-05T06:37:46.200Z,101770.38
2023-02-05T06:41:50.235Z,101770.66
2023-02-05T06:45:53.297Z,101770.38
2023-02-05T06:49:56.230Z,101765.63
2023-02-05T06:54:01.285Z,101775.81
2023-02-05T06:58:04.304Z,101793.63
2023-02-05T07:02:08.899Z,101794.66
2023-02-05T07:06:12.261Z,101806.00
2023-02-05T07:10:16.833Z,101807.56
2023-02-05T07:14:20.207Z,101809.25
2023-02-05T07:18:24.383Z,101809.25
2023-02-05T07:22:27.486Z,101807.56
2023-02-05T07:26:31.920Z,101800.59
2023-02-05T07:30:35.374Z,101807.56
2023-02-05T07:34:38.394Z,101804.22
2023-02-05T07:38:41.292Z,101803.69
2023-02-05T07:42:45.560Z,101803.28
2023-02-05T07:46:48.750Z,101805.25
2023-02-05T07:50:51.904Z,101805.88
2023-02-05T07:54:54.803Z,101810.69
2023-02-05T07:58:59.140Z,101801.50
2023-02-05T08:03:02.255Z,101801.38
2023-02-05T08:07:05.367Z,101814.78
2023-02-05T08:11:08.633Z,101823.19
2023-02-05T08:15:12.983Z,101832.22
2023-02-05T08:19:17.853Z,101821.50
2023-02-05T08:23:20.964Z,101816.03
2023-02-05T08:27:24.051Z,101816.03
2023-02-05T08:31:28.402Z,101823.25
2023-02-05T08:35:31.411Z,101815.41
2023-02-05T08:39:34.702Z,101820.03
2023-02-05T08:43:37.599Z,101816.78
2023-02-05T08:47:41.919Z,101812.13
2023-02-05T08:51:45.057Z,101818.56
2023-02-05T08:55:55.894Z,101824.47
2023-02-05T09:00:00.028Z,101822.41
2023-02-05T09:04:05.182Z,101826.72
2023-02-05T09:08:08.461Z,101820.03
2023-02-05T09:12:11.727Z,101818.69
2023-02-05T09:16:14.852Z,101818.28
2023-02-05T09:20:19.594Z,101813.88
2023-02-05T09:24:22.844Z,101821.53
2023-02-05T09:28:26.451Z,101819.19
2023-02-05T09:32:29.498Z,101807.25
2023-02-05T09:36:33.788Z,101807.00
2023-02-05T09:40:41.542Z,101807.56
2023-02-05T09:44:58.453Z,101813.50
2023-02-05T09:49:06.046Z,101802.13
2023-02-05T09:53:15.264Z,101800.06
2023-02-05T09:57:28.560Z,101795.34
2023-02-05T10:01:42.210Z,101785.50
2023-02-05T10:05:55.947Z,101787.53
2023-02-05T10:10:24.287Z,101779.56
2023-02-05T10:14:41.353Z,101775.13
2023-02-05T10:19:00.357Z,101768.16
2023-02-05T10:23:16.124Z,101769.97
2023-02-05T10:27:23.460Z,101759.84
2023-02-05T10:31:41.004Z,101766.81
2023-02-05T10:35:52.027Z,101750.66
2023-02-05T10:39:58.507Z,101746.84
2023-02-05T10:44:08.217Z,101747.31
2023-02-05T10:48:49.451Z,101746.53
2023-02-05T10:52:52.570Z,101750.16
2023-02-05T10:56:56.103Z,101748.56
2023-02-05T11:01:02.271Z,101737.69
2023-02-05T11:05:09.227Z,101729.47
2023-02-05T11:09:32.189Z,101721.75
2023-02-05T11:13:43.079Z,101721.53
2023-02-05T11:17:52.189Z,101723.81
2023-02-05T11:21:57.502Z,101714.34
2023-02-05T11:26:02.041Z,101705.56
2023-02-05T11:30:37.703Z,101714.59
2023-02-05T11:34:45.020Z,101706.81
2023-02-05T11:38:50.454Z,101710.06
2023-02-05T11:43:02.407Z,101697.34
2023-02-05T11:47:05.472Z,101686.88
2023-02-05T11:51:12.490Z,101690.25
2023-02-05T11:55:26.729Z,101681.22
2023-02-05T11:59:29.851Z,101680.78
2023-02-05T12:03:35.080Z,101685.97
2023-02-05T12:07:47.074Z,101680.78
2023-02-05T12:12:03.747Z,101682.34
2023-02-05T12:16:17.853Z,101675.38
2023-02-05T12:20:27.962Z,101666.81
2023-02-05T12:24:57.691Z,101672.44
2023-02-05T12:29:12.940Z,101669.97
2023-02-05T12:33:29.834Z,101662.28
2023-02-05T12:37:43.298Z,101659.81
2023-02-05T12:41:55.117Z,101659.91
2023-02-05T12:46:06.375Z,101672.66
2023-02-05T12:50:21.239Z,101674.69
2023-02-05T12:54:37.178Z,101683.00
2023-02-05T12:58:46.549Z,101678.28
2023-02-05T13:02:58.481Z,101683.09
2023-02-05T13:07:11.730Z,101669.69
2023-02-05T13:11:19.049Z,101672.75
2023-02-05T13:15:26.336Z,101684.59
2023-02-05T13:19:34.083Z,101683.13
2023-02-05T13:24:04.638Z,101683.81
2023-02-05T13:28:41.815Z,101686.53
2023-02-05T13:32:52.720Z,101698.91
2023-02-05T13:37:25.051Z,101696.31
2023-02-05T13:41:59.371Z,101692.38
2023-02-05T13:46:25.899Z,101681.66
2023-02-05T13:51:03.622Z,101684.59
2023-02-05T13:55:30.308Z,101684.94
2023-02-05T13:59:38.855Z,101681.75
2023-02-05T14:03:53.455Z,101680.41
2023-02-05T14:08:02.035Z,101666.09
2023-02-05T14:12:08.360Z,101665.69
2023-02-05T14:16:36.779Z,101657.91
2023-02-05T14:20:42.223Z,101669.50
2023-02-05T14:24:49.087Z,101662.50
2023-02-05T14:28:55.478Z,101668.16
2023-02-05T14:33:00.219Z,101676.03
2023-02-05T14:37:03.529Z,101679.34
2023-02-05T14:41:13.885Z,101685.16
2023-02-05T14:45:19.108Z,101684.28
2023-02-05T14:49:24.877Z,101688.66
2023-02-05T14:53:29.661Z,101682.47
2023-02-05T14:57:43.359Z,101687.53
2023-02-05T15:01:54.272Z,101681.22
2023-02-05T15:06:02.803Z,101691.16
2023-02-05T15:10:14.540Z,101691.69
2023-02-05T15:14:41.786Z,101701.03
2023-02-05T15:18:46.847Z,101690.44
2023-02-05T15:22:55.315Z,101694.63
2023-02-05T15:27:02.629Z,101701.38
2023-02-05T15:31:23.226Z,101697.66
2023-02-05T15:35:29.816Z,101700.91
2023-02-05T15:39:38.284Z,101698.09
2023-02-05T15:43:41.338Z,101703.94
2023-02-05T15:47:45.963Z,101697.50
2023-02-05T15:51:49.182Z,101700.78
2023-02-05T15:55:52.681Z,101695.38
2023-02-05T15:59:58.225Z,101696.94
2023-02-05T16:04:03.136Z,101701.66
2023-02-05T16:08:18.278Z,101711.78
2023-02-05T16:12:21.279Z,101720.22
2023-02-05T16:16:24.598Z,101716.50
2023-02-05T16:20:31.995Z,101723.69
2023-02-05T16:24:39.990Z,101725.22
2023-02-05T16:28:48.310Z,101730.97
2023-02-05T16:32:54.454Z,101729.81
2023-02-05T16:37:03.117Z,101730.38
2023-02-05T16:41:22.035Z,101729.13
2023-02-05T16:45:29.223Z,101730.56
2023-02-05T16:49:33.211Z,101731.09
2023-02-05T16:53:38.457Z,101735.00
2023-02-05T16:57:41.594Z,101727.91
2023-02-05T17:01:45.622Z,101726.88
2023-02-05T17:05:56.354Z,101732.59
2023-02-05T17:10:22.183Z,101732.34
2023-02-05T17:14:31.200Z,101731.31
2023-02-05T17:18:34.721Z,101744.25
2023-02-05T17:22:37.781Z,101744.13
2023-02-05T17:26:44.075Z,101737.56
2023-02-05T17:30:48.748Z,101745.09
2023-02-05T17:34:51.777Z,101745.75
2023-02-05T17:38:54.943Z,101747.97
2023-02-05T17:42:59.402Z,101740.88
2023-02-05T17:47:02.961Z,101749.88
2023-02-05T17:51:06.388Z,101746.41
2023-02-05T17:55:14.420Z,101742.97
2023-02-05T17:59:20.838Z,101746.97
2023-02-05T18:03:23.843Z,101739.75
2023-02-05T18:07:32.120Z,101745.22
2023-02-05T18:11:35.178Z,101739.81
2023-02-05T18:15:39.578Z,101743.94
2023-02-05T18:19:42.578Z,101746.19
2023-02-05T18:23:45.589Z,101749.28
2023-02-05T18:27:49.105Z,101744.25
2023-02-05T18:31:53.686Z,101760.56
2023-02-05T18:36:01.582Z,101760.31
2023-02-05T18:40:05.300Z,101760.06
2023-02-05T18:44:08.447Z,101761.09
2023-02-05T18:48:14.185Z,101766.38
2023-02-05T18:52:18.477Z,101769.53
2023-02-05T18:56:22.853Z,101775.88
2023-02-05T19:00:25.915Z,101768.13
2023-02-05T19:04:33.070Z,101775.34
2023-02-05T19:08:36.901Z,101767.31
2023-02-05T19:12:39.888Z,101766.09
2023-02-05T19:16:43.658Z,101772.78
2023-02-05T19:20:49.442Z,101768.16
2023-02-05T19:24:52.496Z,101772.06
2023-02-05T19:28:58.468Z,101788.09
2023-02-05T19:33:01.529Z,101791.47
2023-02-05T19:37:05.944Z,101793.78
2023-02-05T19:41:09.993Z,101797.81
2023-02-05T19:45:13.081Z,101804.53
2023-02-05T19:49:18.368Z,101794.97
2023-02-05T19:53:22.824Z,101798.75
2023-02-05T19:57:26.069Z,101803.41
2023-02-05T20:01:30.936Z,101799.66
2023-02-05T20:05:37.138Z,101808.03
2023-02-05T20:09:41.696Z,101813.22
2023-02-05T20:13:45.603Z,101811.16
2023-02-05T20:17:49.339Z,101822.03
2023-02-05T20:21:52.499Z,101823.31
2023-02-05T20:25:58.803Z,101821.38
2023-02-05T20:30:19.500Z,101830.28
2023-02-05T20:34:25.825Z,101827.84
2023-02-05T20:38:29.057Z,101822.31
2023-02-05T20:42:33.841Z,101824.88
2023-02-05T20:46:36.926Z,101821.63
2023-02-05T20:50:40.050Z,101826.44
2023-02-05T20:54:43.132Z,101834.03
2023-02-05T20:58:48.085Z,101839.47
2023-02-05T21:02:51.329Z,101843.44
2023-02-05T21:06:54.609Z,101850.41
2023-02-05T21:10:57.736Z,101861.53
2023-02-05T21:15:02.102Z,101874.44
2023-02-05T21:19:07.388Z,101877.22
2023-02-05T21:23:10.437Z,101888.81
2023-02-05T21:31:34.670Z,101909.47
2023-02-05T21:35:39.157Z,101922.38
2023-02-05T21:39:44.302Z,101924.44
2023-02-05T21:43:49.930Z,101909.19
2023-02-05T21:47:54.374Z,101923.38
2023-02-05T21:51:57.537Z,101933.13
2023-02-05T21:56:01.579Z,101941.38
2023-02-05T22:00:05.486Z,101950.81
2023-02-05T22:04:17.158Z,101952.97
2023-02-05T22:08:20.193Z,101967.69
2023-02-05T22:12:23.188Z,101975.41
2023-02-05T22:16:28.552Z,101980.16
2023-02-05T22:20:32.947Z,101981.84
2023-02-05T22:24:36.116Z,101980.00
2023-02-05T22:28:39.660Z,101984.88
2023-02-05T22:32:42.970Z,101995.50
2023-02-05T22:36:47.500Z,102007.63
2023-02-05T22:40:50.894Z,102007.63
2023-02-05T22:44:55.346Z,102008.66
2023-02-05T22:49:00.099Z,102006.44
2023-02-05T22:53:04.525Z,102002.19
2023-02-05T22:57:07.626Z,102008.31
2023-02-05T23:01:12.260Z,102000.03
2023-02-05T23:05:15.426Z,102002.88
2023-02-05T23:09:19.927Z,102008.03
2023-02-05T23:13:22.985Z,102008.03
2023-02-05T23:17:26.010Z,102017.50
2023-02-05T23:21:30.806Z,102013.59
2023-02-05T23:25:37.518Z,102017.28
2023-02-05T23:29:41.145Z,102009.41
2023-02-05T23:33:44.478Z,102008.72
2023-02-05T23:37:47.572Z,102011.16
2023-02-05T23:41:52.059Z,102006.75
2023-02-05T23:45:55.569Z,102009.63
2023-02-05T23:49:58.556Z,102012.47
2023-02-05T23:54:01.613Z,102018.38
2023-02-05T23:58:06.562Z,102017.34
